Terminal Aerodrome Forecast
Issued by NWS Sioux Falls, SD

Home | Current Version | Previous Version | Text Only | Print | Product List | Glossary On
Versions: 1 2 3 4 5 6 7 8 9 10 11 12 13
000
FTUS43 KFSD 151100
TAFSUX
TAF
KSUX 151126Z 1512/1612 VRB03KT P6SM SKC
     FM151600 17008KT P6SM FEW120
     FM151900 17014G22KT P6SM SCT150
     FM160130 14016G23KT P6SM SCT150
     FM160500 14014KT P6SM BKN120 WS010/19041KT=

USA.gov is the U.S. government's official web portal to all federal, state and local government web resources and services.